This is the latest recevied weather packets stored in our database for station/object KG5TTF. If no packets are shown the sender has not sent any weather packets the latest 10 day(s).
| Time | Temp. | Humidity | Pressure | Rain* | Wind** | Luminosity | Snow |
|---|---|---|---|---|---|---|---|
| 1778097187 | 1.11° C | 82% | 1023.1 hPa | 0 mm | - | 284 W/m² | - |
| 1778096884 | 0.56° C | 84% | 1022.9 hPa | 0 mm | - | 218 W/m² | - |
| 1778096580 | 0.56° C | 86% | 1022.9 hPa | 0 mm | - | 240 W/m² | - |
| 1778096278 | 0° C | 85% | 1022.9 hPa | 0 mm | - | 224 W/m² | - |
| 1778095975 | 0.56° C | 86% | 1023 hPa | 0 mm | - | 232 W/m² | - |
| 1778095671 | -0.56° C | 87% | 1023 hPa | 0 mm | - | 192 W/m² | - |
| 1778095368 | 0° C | 86% | 1022.7 hPa | 0 mm | - | 291 W/m² | - |
| 1778095065 | 0° C | 88% | 1023 hPa | 0 mm | - | 253 W/m² | - |
| 1778094761 | 0° C | 89% | 1023 hPa | 0 mm | - | 245 W/m² | - |
| 1778094458 | 0° C | 88% | 1023 hPa | 0 mm | - | 247 W/m² | - |
| 1778094155 | -0.56° C | 89% | 1023.2 hPa | 0 mm | - | 245 W/m² | - |
| 1778093852 | -0.56° C | 90% | 1023.1 hPa | 0 mm | - | 231 W/m² | - |
| 1778093548 | -0.56° C | 91% | 1023.2 hPa | 0 mm | - | 217 W/m² | - |
| 1778093246 | -0.56° C | 90% | 1023.2 hPa | 0 mm | - | 184 W/m² | - |
| 1778092943 | -0.56° C | 90% | 1023.2 hPa | 0 mm | - | 184 W/m² | - |
| 1778092640 | 0° C | 92% | 1023.2 hPa | 0 mm | - | 232 W/m² | - |
| 1778092335 | 0° C | 91% | 1023.2 hPa | 0 mm | - | 179 W/m² | - |
| 1778092033 | 0° C | 91% | 1023.2 hPa | 0 mm | - | 177 W/m² | - |
| 1778091730 | 0° C | 91% | 1023.1 hPa | 0 mm | - | 189 W/m² | - |
| 1778091428 | 0° C | 92% | 1023 hPa | 0 mm | - | 187 W/m² | - |
| 1778091125 | -0.56° C | 92% | 1022.9 hPa | 0 mm | - | 195 W/m² | - |
| 1778090822 | -1.11° C | 91% | 1023 hPa | 0 mm | - | 139 W/m² | - |
| 1778090518 | -0.56° C | 89% | 1023 hPa | 0 mm | - | 134 W/m² | - |
| 1778090214 | 0.56° C | 90% | 1023 hPa | 0 mm | - | 151 W/m² | - |
| 1778089911 | 0.56° C | 90% | 1022.9 hPa | 0 mm | - | 174 W/m² | - |
* Rain latest hour (hover to see other rain measurements)
** Current wind speed in m/s (hover to see current wind gust speed)